Time;durP1;ratioP1;P1;durP2;ratioP2;P2;SDS_P1;SDS_P2;PMS_P1;PMS_P2;Temp;Humidity;BMP_temperature;BMP_pressure;BME280_temperature;BME280_humidity;BME280_pressure;Samples;Min_cycle;Max_cycle;Signal;HPM_P1;HPM_P2
2022/09/26 00:01:25;;;;;;;0.50;0.50;;;11.60;99.90;;;;;;4996108;28;20153;-81
2022/09/26 00:03:58;;;;;;;0.50;0.50;;;11.60;99.90;;;;;;4998205;28;20043;-81
2022/09/26 00:06:25;;;;;;;0.50;0.50;;;11.60;99.90;;;;;;5005053;27;20799;-80
2022/09/26 00:08:52;;;;;;;0.50;0.50;;;11.60;99.90;;;;;;4995913;28;20853;-80
2022/09/26 00:11:24;;;;;;;0.50;0.50;;;11.50;99.90;;;;;;5019441;28;20718;-80
2022/09/26 00:13:52;;;;;;;0.60;0.60;;;11.60;99.90;;;;;;4997917;28;20090;-80
2022/09/26 00:16:19;;;;;;;0.50;0.50;;;11.60;99.90;;;;;;4988216;28;20452;-80
2022/09/26 00:18:49;;;;;;;0.50;0.50;;;11.60;99.90;;;;;;5012391;28;20078;-80
2022/09/26 00:21:15;;;;;;;0.50;0.50;;;11.60;99.90;;;;;;5024312;27;20976;-81
2022/09/26 00:23:41;;;;;;;0.50;0.50;;;11.60;99.90;;;;;;5010123;28;20043;-80
2022/09/26 00:26:08;;;;;;;0.60;0.60;;;11.50;99.90;;;;;;4992445;28;20780;-80
2022/09/26 00:28:34;;;;;;;0.50;0.50;;;11.60;99.90;;;;;;5026388;27;20543;-80
2022/09/26 00:31:04;;;;;;;0.50;0.50;;;11.50;99.90;;;;;;4999245;28;20071;-81
2022/09/26 00:33:30;;;;;;;0.50;0.50;;;11.50;99.90;;;;;;5023679;27;20051;-80
2022/09/26 00:35:56;;;;;;;0.50;0.50;;;11.50;99.90;;;;;;5023849;28;20562;-80
2022/09/26 00:38:22;;;;;;;0.50;0.50;;;11.50;99.90;;;;;;5006916;28;20679;-81
2022/09/26 00:40:49;;;;;;;0.50;0.50;;;11.50;99.90;;;;;;5008066;28;20076;-81
2022/09/26 00:43:34;;;;;;;0.50;0.50;;;11.50;99.90;;;;;;4996931;28;20688;-82
2022/09/26 00:46:23;;;;;;;0.50;0.50;;;11.50;99.90;;;;;;4997041;28;20435;-83
2022/09/26 00:49:06;;;;;;;0.60;0.60;;;11.50;99.90;;;;;;5007943;28;20404;-81
2022/09/26 00:51:35;;;;;;;0.50;0.50;;;11.50;99.90;;;;;;5004601;28;20121;-84
2022/09/26 00:54:03;;;;;;;0.50;0.50;;;11.50;99.90;;;;;;4985152;27;20055;-79
2022/09/26 00:56:34;;;;;;;0.50;0.50;;;11.50;99.90;;;;;;4971881;28;20232;-81
2022/09/26 00:59:09;;;;;;;0.50;0.50;;;11.50;99.90;;;;;;5013137;27;20057;-80
2022/09/26 01:01:36;;;;;;;0.50;0.50;;;11.50;99.90;;;;;;5002573;27;20062;-79
2022/09/26 01:04:04;;;;;;;0.50;0.50;;;11.40;99.90;;;;;;5000554;27;20138;-81
2022/09/26 01:06:31;;;;;;;0.50;0.50;;;11.50;99.90;;;;;;4984837;28;20785;-82
2022/09/26 01:09:07;;;;;;;0.50;0.50;;;11.40;99.90;;;;;;5008411;28;20051;-80
2022/09/26 01:11:38;;;;;;;0.50;0.50;;;11.40;99.90;;;;;;5002778;27;20048;-81
2022/09/26 01:14:09;;;;;;;0.50;0.50;;;11.40;99.90;;;;;;5014296;27;20742;-79
2022/09/26 01:16:37;;;;;;;0.50;0.50;;;11.40;99.90;;;;;;5002850;27;20248;-80
2022/09/26 01:19:18;;;;;;;0.50;0.50;;;11.40;99.90;;;;;;5004045;27;20134;-79
2022/09/26 01:22:20;;;;;;;0.50;0.50;;;11.30;99.90;;;;;;5021910;27;20051;-79
2022/09/26 01:24:48;;;;;;;0.50;0.50;;;11.30;99.90;;;;;;4999309;27;20406;-80
2022/09/26 01:27:34;;;;;;;0.50;0.50;;;11.30;99.90;;;;;;5004405;27;21213;-79
2022/09/26 01:30:10;;;;;;;0.50;0.50;;;11.20;99.90;;;;;;5025671;27;20051;-79
2022/09/26 01:33:14;;;;;;;0.50;0.50;;;11.20;99.90;;;;;;4986823;27;20050;-82
2022/09/26 01:35:58;;;;;;;0.60;0.60;;;11.20;99.90;;;;;;5004060;27;20065;-80
2022/09/26 01:38:58;;;;;;;0.50;0.50;;;11.20;99.90;;;;;;5026645;27;20051;-80
2022/09/26 01:41:32;;;;;;;0.50;0.50;;;11.20;99.90;;;;;;5022994;27;20051;-79
2022/09/26 01:44:17;;;;;;;0.50;0.50;;;11.30;99.90;;;;;;4997897;27;20055;-79
2022/09/26 01:46:51;;;;;;;0.50;0.50;;;11.30;99.90;;;;;;4999478;27;20055;-80
2022/09/26 01:49:49;;;;;;;0.60;0.60;;;11.20;99.90;;;;;;4996926;27;20058;-80
2022/09/26 01:52:30;;;;;;;0.60;0.60;;;11.20;99.90;;;;;;5001150;27;20771;-79
2022/09/26 01:55:07;;;;;;;0.50;0.50;;;11.30;99.90;;;;;;5000007;27;20144;-79
2022/09/26 01:57:40;;;;;;;0.60;0.60;;;11.20;99.90;;;;;;5006948;27;20526;-79
2022/09/26 02:00:08;;;;;;;0.60;0.60;;;11.20;99.90;;;;;;5005038;27;20692;-78
2022/09/26 02:02:39;;;;;;;0.60;0.60;;;11.30;99.90;;;;;;5034267;27;20078;-79
2022/09/26 02:05:12;;;;;;;0.60;0.60;;;11.30;99.90;;;;;;5008884;27;21841;-80
2022/09/26 02:07:44;;;;;;;0.50;0.50;;;11.30;99.90;;;;;;4999880;27;20050;-81
2022/09/26 02:10:21;;;;;;;0.50;0.50;;;11.30;99.90;;;;;;4997425;27;20449;-80
2022/09/26 02:12:53;;;;;;;0.50;0.50;;;11.30;99.90;;;;;;5002856;27;20486;-81
2022/09/26 02:15:24;;;;;;;0.50;0.50;;;11.30;99.90;;;;;;4999239;27;20047;-79
2022/09/26 02:18:12;;;;;;;0.50;0.50;;;11.30;99.90;;;;;;5003188;27;20927;-79
2022/09/26 02:20:43;;;;;;;0.50;0.50;;;11.30;99.90;;;;;;5006853;27;20448;-80
2022/09/26 02:23:09;;;;;;;0.50;0.50;;;11.30;99.90;;;;;;5011957;27;20459;-79
2022/09/26 02:25:36;;;;;;;0.50;0.50;;;11.40;99.90;;;;;;4989294;27;20272;-81
2022/09/26 02:28:02;;;;;;;0.50;0.50;;;11.40;99.90;;;;;;5021531;27;20062;-81
2022/09/26 02:30:28;;;;;;;0.50;0.50;;;11.50;99.90;;;;;;5009004;27;20783;-83
2022/09/26 02:32:54;;;;;;;0.60;0.60;;;11.50;99.90;;;;;;5006460;27;20100;-81
2022/09/26 02:38:05;;;;;;;0.50;0.50;;;11.50;99.90;;;;;;5004720;27;20181;-80
2022/09/26 02:40:50;;;;;;;0.50;0.50;;;11.50;99.90;;;;;;5022073;27;20055;-81
2022/09/26 02:43:31;;;;;;;0.50;0.50;;;11.50;99.90;;;;;;5006613;28;20526;-83
2022/09/26 02:46:04;;;;;;;0.50;0.50;;;11.50;99.90;;;;;;5002864;27;20054;-81
2022/09/26 02:49:04;;;;;;;0.57;0.57;;;11.50;99.90;;;;;;5002705;27;20506;-80
2022/09/26 02:52:01;;;;;;;0.60;0.60;;;11.50;99.90;;;;;;4998064;27;20567;-82
2022/09/26 02:54:40;;;;;;;0.50;0.50;;;11.60;99.90;;;;;;4994791;28;20547;-80
2022/09/26 02:57:25;;;;;;;0.50;0.50;;;11.60;99.90;;;;;;5011469;28;20044;-81
2022/09/26 03:00:04;;;;;;;0.50;0.50;;;11.60;99.90;;;;;;4999839;27;20236;-83
2022/09/26 03:02:48;;;;;;;0.55;0.55;;;11.50;99.90;;;;;;5023370;27;20043;-79
2022/09/26 03:05:23;;;;;;;0.50;0.50;;;11.60;99.90;;;;;;5005338;27;20872;-80
2022/09/26 03:08:10;;;;;;;0.60;0.60;;;11.60;99.90;;;;;;4994333;27;20074;-82
2022/09/26 03:10:37;;;;;;;0.50;0.50;;;11.60;99.90;;;;;;4990814;28;20051;-83
2022/09/26 03:13:08;;;;;;;0.50;0.50;;;11.60;99.90;;;;;;4983285;27;20587;-81
2022/09/26 03:15:37;;;;;;;0.50;0.50;;;11.60;99.90;;;;;;4998460;27;20046;-80
2022/09/26 03:18:09;;;;;;;0.50;0.50;;;11.50;99.90;;;;;;5000120;27;20510;-81
2022/09/26 03:20:35;;;;;;;0.50;0.50;;;11.60;99.90;;;;;;5013038;27;20440;-81
2022/09/26 03:23:02;;;;;;;0.50;0.50;;;11.60;99.90;;;;;;5009844;27;20051;-80
2022/09/26 03:25:28;;;;;;;0.50;0.50;;;11.50;99.90;;;;;;4976450;27;20032;-81
2022/09/26 03:27:55;;;;;;;0.50;0.50;;;11.50;99.90;;;;;;5000216;27;20288;-81
2022/09/26 03:30:22;;;;;;;0.50;0.50;;;11.50;99.90;;;;;;4964724;27;20108;-81
2022/09/26 03:32:48;;;;;;;0.50;0.50;;;11.50;99.90;;;;;;5009649;27;20502;-81
2022/09/26 03:35:15;;;;;;;0.50;0.50;;;11.50;99.90;;;;;;5010558;27;20986;-84
2022/09/26 03:37:41;;;;;;;0.50;0.50;;;11.50;99.90;;;;;;5004148;27;20051;-83
2022/09/26 03:40:09;;;;;;;0.50;0.50;;;11.50;99.90;;;;;;5003114;27;20075;-85
2022/09/26 03:42:36;;;;;;;0.52;0.52;;;11.40;99.90;;;;;;4989961;28;20054;-85
2022/09/26 03:45:07;;;;;;;0.50;0.50;;;11.40;99.90;;;;;;4998033;28;20051;-85
2022/09/26 03:47:33;;;;;;;0.50;0.50;;;11.40;99.90;;;;;;4996638;28;20486;-84
2022/09/26 03:50:00;;;;;;;0.50;0.50;;;11.40;99.90;;;;;;5017170;28;20883;-87
2022/09/26 03:52:26;;;;;;;0.50;0.50;;;11.40;99.90;;;;;;4997886;27;20416;-85
2022/09/26 03:54:52;;;;;;;0.50;0.50;;;11.40;99.90;;;;;;4986074;28;20073;-84
2022/09/26 03:57:18;;;;;;;0.50;0.50;;;11.40;99.90;;;;;;4982277;28;20510;-87
2022/09/26 03:59:44;;;;;;;0.50;0.50;;;11.40;99.90;;;;;;4991715;28;22099;-87
2022/09/26 04:02:11;;;;;;;0.50;0.50;;;11.40;99.90;;;;;;4987461;28;20400;-89
2022/09/26 04:04:37;;;;;;;0.50;0.50;;;11.40;99.90;;;;;;5007351;28;20134;-87
2022/09/26 04:07:03;;;;;;;0.50;0.50;;;11.40;99.90;;;;;;5011052;28;20040;-91
2022/09/26 04:09:29;;;;;;;0.50;0.50;;;11.40;99.90;;;;;;4986010;28;20044;-87
2022/09/26 04:11:55;;;;;;;0.50;0.50;;;11.30;99.90;;;;;;4980005;28;20051;-89
2022/09/26 04:14:21;;;;;;;0.52;0.52;;;11.30;99.90;;;;;;4995385;28;20044;-83
2022/09/26 04:16:47;;;;;;;0.50;0.50;;;11.30;99.90;;;;;;4991843;28;20580;-87
2022/09/26 04:19:13;;;;;;;0.50;0.50;;;11.40;99.90;;;;;;4994615;28;20131;-86
2022/09/26 04:21:40;;;;;;;0.60;0.60;;;11.30;99.90;;;;;;5009738;28;20082;-85
2022/09/26 04:24:08;;;;;;;0.50;0.50;;;11.30;99.90;;;;;;4994526;28;20447;-88
2022/09/26 04:26:34;;;;;;;0.60;0.60;;;11.30;99.90;;;;;;4997275;27;20379;-82
2022/09/26 04:29:04;;;;;;;0.50;0.50;;;11.30;99.90;;;;;;4996116;27;20450;-86
2022/09/26 04:31:29;;;;;;;0.50;0.50;;;11.20;99.90;;;;;;5001243;27;20902;-87
2022/09/26 04:33:55;;;;;;;0.50;0.50;;;11.30;99.90;;;;;;5001664;27;20036;-84
2022/09/26 04:36:22;;;;;;;0.50;0.50;;;11.20;99.90;;;;;;5023259;27;20044;-87
2022/09/26 04:38:48;;;;;;;0.50;0.50;;;11.20;99.90;;;;;;5003524;27;20039;-87
2022/09/26 04:41:18;;;;;;;0.52;0.52;;;11.20;99.90;;;;;;5022868;27;20088;-87
2022/09/26 04:43:44;;;;;;;0.50;0.50;;;11.20;99.90;;;;;;5014492;27;20461;-84
2022/09/26 04:46:24;;;;;;;0.60;0.60;;;11.20;99.90;;;;;;5008004;27;20157;-89
2022/09/26 04:48:51;;;;;;;0.50;0.50;;;11.20;99.90;;;;;;5024783;27;20488;-86
2022/09/26 04:51:18;;;;;;;0.50;0.50;;;11.20;99.90;;;;;;4997217;27;20063;-86
2022/09/26 04:53:46;;;;;;;0.50;0.50;;;11.20;99.90;;;;;;4991497;27;20086;-85
2022/09/26 04:56:13;;;;;;;0.50;0.50;;;11.20;99.90;;;;;;5014407;27;20663;-86
2022/09/26 04:58:43;;;;;;;0.50;0.50;;;11.20;99.90;;;;;;5020469;27;20051;-83
2022/09/26 05:01:11;;;;;;;0.50;0.50;;;11.20;99.90;;;;;;5017127;27;20687;-87
2022/09/26 05:03:38;;;;;;;0.60;0.60;;;11.10;99.90;;;;;;5002626;27;20077;-86
2022/09/26 05:06:06;;;;;;;0.60;0.60;;;11.10;99.90;;;;;;5016192;27;20061;-83
2022/09/26 05:08:32;;;;;;;0.50;0.50;;;11.10;99.90;;;;;;5009502;27;20065;-85
2022/09/26 05:10:58;;;;;;;0.50;0.50;;;11.20;99.90;;;;;;4999579;27;20366;-87
2022/09/26 05:13:25;;;;;;;0.50;0.50;;;11.10;99.90;;;;;;5014754;27;20066;-84
2022/09/26 05:15:54;;;;;;;0.50;0.50;;;11.10;99.90;;;;;;5018392;27;20039;-84
2022/09/26 05:18:23;;;;;;;0.50;0.50;;;11.10;99.90;;;;;;5014369;27;20054;-82
2022/09/26 05:20:49;;;;;;;0.50;0.50;;;11.10;99.90;;;;;;4996995;27;20044;-84
2022/09/26 05:26:39;;;;;;;0.57;0.57;;;11.10;99.90;;;;;;4950447;28;20589;-87
2022/09/26 05:29:05;;;;;;;0.50;0.50;;;11.10;99.90;;;;;;4959974;28;20132;-85
2022/09/26 05:31:38;;;;;;;0.60;0.60;;;11.10;99.90;;;;;;4992810;27;20470;-88
2022/09/26 05:34:06;;;;;;;0.50;0.50;;;11.10;99.90;;;;;;5013356;27;20947;-86
2022/09/26 05:36:33;;;;;;;0.50;0.50;;;11.10;99.90;;;;;;5011367;27;20743;-84
2022/09/26 05:38:59;;;;;;;0.50;0.50;;;11.10;99.90;;;;;;5024875;27;20047;-82
2022/09/26 05:41:30;;;;;;;0.50;0.50;;;11.10;99.90;;;;;;5013058;27;20146;-84
2022/09/26 05:43:56;;;;;;;0.57;0.57;;;11.10;99.90;;;;;;5010511;28;20052;-81
2022/09/26 05:46:23;;;;;;;0.50;0.50;;;11.10;99.90;;;;;;5003509;28;20070;-86
2022/09/26 05:48:49;;;;;;;0.50;0.50;;;11.10;99.90;;;;;;4987811;28;20502;-81
2022/09/26 05:51:19;;;;;;;0.50;0.50;;;11.10;99.90;;;;;;5004322;28;20637;-82
2022/09/26 05:53:47;;;;;;;0.50;0.50;;;11.10;99.90;;;;;;5011195;28;20052;-86
2022/09/26 05:56:14;;;;;;;0.50;0.50;;;11.10;99.90;;;;;;5003678;28;20349;-82
2022/09/26 05:58:40;;;;;;;0.50;0.50;;;11.10;99.90;;;;;;4996487;28;20039;-82
2022/09/26 06:01:12;;;;;;;0.50;0.50;;;11.10;99.90;;;;;;5000532;28;20056;-83
2022/09/26 06:03:42;;;;;;;0.50;0.50;;;11.10;99.90;;;;;;5000604;28;20114;-82
2022/09/26 06:06:13;;;;;;;0.50;0.50;;;11.20;99.90;;;;;;5002627;28;20065;-85
2022/09/26 06:08:39;;;;;;;0.50;0.50;;;11.20;99.90;;;;;;5000285;28;20613;-82
2022/09/26 06:11:08;;;;;;;0.50;0.50;;;11.20;99.90;;;;;;5000200;28;20082;-82
2022/09/26 06:13:36;;;;;;;0.60;0.60;;;11.20;99.90;;;;;;4994728;28;20044;-81
2022/09/26 06:16:05;;;;;;;0.50;0.50;;;11.30;99.90;;;;;;5003048;28;20047;-86
2022/09/26 06:18:32;;;;;;;0.60;0.60;;;11.30;99.90;;;;;;4999922;28;20044;-83
2022/09/26 06:21:02;;;;;;;0.50;0.50;;;11.20;99.90;;;;;;4995077;28;20590;-81
2022/09/26 06:23:30;;;;;;;0.50;0.50;;;11.20;99.90;;;;;;5003527;28;20223;-82
2022/09/26 06:25:56;;;;;;;0.50;0.50;;;11.20;99.90;;;;;;4998544;28;20970;-82
2022/09/26 06:28:21;;;;;;;0.52;0.52;;;11.20;99.90;;;;;;5002931;28;20128;-81
2022/09/26 06:30:47;;;;;;;0.50;0.50;;;11.20;99.90;;;;;;5013804;28;20527;-81
2022/09/26 06:33:13;;;;;;;0.50;0.50;;;11.20;99.90;;;;;;5006964;28;20519;-78
2022/09/26 06:35:39;;;;;;;0.50;0.50;;;11.20;99.90;;;;;;5007942;28;20058;-82
2022/09/26 06:38:05;;;;;;;0.50;0.50;;;11.20;99.90;;;;;;4979587;28;20182;-80
2022/09/26 06:40:32;;;;;;;0.60;0.60;;;11.20;99.90;;;;;;5001682;28;20051;-82
2022/09/26 06:42:59;;;;;;;0.57;0.57;;;11.20;99.90;;;;;;5008714;28;20517;-82
2022/09/26 06:45:28;;;;;;;0.50;0.50;;;11.20;99.90;;;;;;5001415;28;20078;-81
2022/09/26 06:47:53;;;;;;;0.50;0.50;;;11.20;99.90;;;;;;5006068;28;20780;-82
2022/09/26 06:50:20;;;;;;;0.50;0.50;;;11.20;99.90;;;;;;5000095;28;20152;-82
2022/09/26 06:52:46;;;;;;;0.50;0.50;;;11.10;99.90;;;;;;5000929;28;20642;-83
2022/09/26 06:55:13;;;;;;;0.50;0.50;;;11.20;99.90;;;;;;5000918;28;20043;-81
2022/09/26 06:57:42;;;;;;;0.50;0.50;;;11.20;99.90;;;;;;4988588;28;20377;-81
2022/09/26 07:00:10;;;;;;;0.50;0.50;;;11.20;99.90;;;;;;5004757;28;20547;-84
2022/09/26 07:02:36;;;;;;;0.50;0.50;;;11.20;99.90;;;;;;4999819;28;20063;-81
2022/09/26 07:05:04;;;;;;;0.52;0.52;;;11.20;99.90;;;;;;4988519;28;20470;-81
2022/09/26 07:07:31;;;;;;;0.55;0.55;;;11.30;99.90;;;;;;5006440;28;20040;-82
2022/09/26 07:09:57;;;;;;;0.50;0.50;;;11.30;99.90;;;;;;4982238;28;20136;-79
2022/09/26 07:12:27;;;;;;;0.50;0.50;;;11.30;99.90;;;;;;5001268;28;20096;-80
2022/09/26 07:14:54;;;;;;;0.50;0.50;;;11.40;99.90;;;;;;5002754;28;20796;-77
2022/09/26 07:17:20;;;;;;;0.50;0.50;;;11.40;99.90;;;;;;4993247;28;20558;-81
2022/09/26 07:19:51;;;;;;;0.50;0.50;;;11.50;99.90;;;;;;5000508;28;20044;-82
2022/09/26 07:22:17;;;;;;;0.50;0.50;;;11.50;99.90;;;;;;5006303;28;20210;-81
2022/09/26 07:24:45;;;;;;;0.50;0.50;;;11.50;99.90;;;;;;5001801;28;20342;-82
2022/09/26 07:27:11;;;;;;;0.50;0.50;;;11.60;99.90;;;;;;4984190;28;20436;-82
2022/09/26 07:29:38;;;;;;;0.50;0.50;;;11.60;99.90;;;;;;5003623;28;20083;-83
2022/09/26 07:32:04;;;;;;;0.60;0.60;;;11.60;99.90;;;;;;5002287;28;20075;-82
2022/09/26 07:34:30;;;;;;;0.50;0.50;;;11.70;99.90;;;;;;4998122;28;20066;-80
2022/09/26 07:36:58;;;;;;;0.52;0.52;;;11.60;99.90;;;;;;5004145;28;20501;-80
2022/09/26 07:39:25;;;;;;;0.50;0.50;;;11.70;99.90;;;;;;5008868;28;20072;-81
2022/09/26 07:41:52;;;;;;;0.60;0.60;;;11.70;99.90;;;;;;4998722;28;20059;-83
2022/09/26 07:44:17;;;;;;;0.50;0.50;;;11.70;99.90;;;;;;5008728;28;20060;-82
2022/09/26 07:52:12;;;;;;;0.50;0.50;;;11.70;99.90;;;;;;4998561;28;20055;-84
2022/09/26 07:54:38;;;;;;;0.50;0.50;;;11.70;99.90;;;;;;5005178;28;20047;-80
2022/09/26 07:57:04;;;;;;;0.50;0.50;;;11.80;99.90;;;;;;4982915;28;20098;-81
2022/09/26 07:59:34;;;;;;;0.50;0.50;;;11.70;99.90;;;;;;5007047;28;20153;-84
2022/09/26 08:02:01;;;;;;;0.50;0.50;;;11.80;99.90;;;;;;4999803;28;20052;-85
2022/09/26 08:04:27;;;;;;;0.60;0.60;;;11.70;99.90;;;;;;5001499;28;20502;-80
2022/09/26 08:06:55;;;;;;;0.50;0.50;;;11.70;99.90;;;;;;5002354;28;20507;-82
2022/09/26 08:09:21;;;;;;;0.50;0.50;;;11.70;99.90;;;;;;5000382;28;20051;-78
2022/09/26 08:11:47;;;;;;;0.50;0.50;;;11.70;99.90;;;;;;4980166;28;20826;-83
2022/09/26 08:14:13;;;;;;;0.50;0.50;;;11.70;99.90;;;;;;5007129;28;20494;-86
2022/09/26 08:16:40;;;;;;;0.50;0.50;;;11.70;99.90;;;;;;4999026;28;20466;-81
2022/09/26 08:19:10;;;;;;;0.50;0.50;;;11.70;99.90;;;;;;5004788;28;20087;-83
2022/09/26 08:21:36;;;;;;;0.60;0.60;;;11.60;99.90;;;;;;4998605;28;20048;-80
2022/09/26 08:24:02;;;;;;;0.50;0.50;;;11.70;99.90;;;;;;4982822;28;20849;-82
2022/09/26 08:26:28;;;;;;;0.50;0.50;;;11.70;99.90;;;;;;5001536;28;20445;-81
2022/09/26 08:28:54;;;;;;;0.60;0.60;;;11.80;99.90;;;;;;5008150;28;20048;-82
2022/09/26 08:31:20;;;;;;;0.50;0.50;;;11.80;99.90;;;;;;5003561;28;20558;-79
2022/09/26 08:33:46;;;;;;;0.50;0.50;;;11.90;99.90;;;;;;5003949;28;20449;-81
2022/09/26 08:36:15;;;;;;;0.50;0.50;;;12.00;99.90;;;;;;4989150;28;20159;-81
2022/09/26 08:38:41;;;;;;;0.50;0.50;;;12.10;99.90;;;;;;5011555;28;20508;-80
2022/09/26 08:41:46;;;;;;;0.50;0.50;;;12.30;99.90;;;;;;5002897;28;20445;-82
2022/09/26 08:44:45;;;;;;;0.50;0.50;;;12.50;99.90;;;;;;4930344;28;20061;-81
2022/09/26 08:47:47;;;;;;;0.50;0.50;;;12.50;99.90;;;;;;5004227;28;20052;-82
2022/09/26 08:50:17;;;;;;;0.50;0.50;;;12.70;99.90;;;;;;4981274;28;20532;-83
2022/09/26 08:52:52;;;;;;;0.50;0.50;;;12.70;99.90;;;;;;5008276;28;20051;-81
2022/09/26 08:55:39;;;;;;;0.50;0.50;;;12.80;99.90;;;;;;5000210;28;20063;-81
2022/09/26 08:58:14;;;;;;;0.50;0.50;;;12.80;99.90;;;;;;5007138;28;20271;-84
2022/09/26 09:00:40;;;;;;;0.50;0.50;;;12.70;99.90;;;;;;5005274;28;20828;-90
2022/09/26 09:03:09;;;;;;;0.50;0.50;;;12.70;99.90;;;;;;4982771;28;20071;-84
2022/09/26 09:05:39;;;;;;;0.50;0.50;;;12.60;99.90;;;;;;5001139;28;20487;-80
2022/09/26 09:08:20;;;;;;;0.50;0.50;;;12.60;99.90;;;;;;5005067;28;20048;-82
2022/09/26 09:11:05;;;;;;;0.50;0.50;;;12.50;99.90;;;;;;5006657;28;20362;-81
2022/09/26 09:14:12;;;;;;;0.50;0.50;;;12.50;99.90;;;;;;5000983;28;20450;-84
2022/09/26 09:17:17;;;;;;;0.50;0.50;;;12.40;99.90;;;;;;4966475;28;20055;-81
2022/09/26 09:20:15;;;;;;;0.50;0.50;;;12.40;99.90;;;;;;4989261;28;20052;-82
2022/09/26 09:22:59;;;;;;;0.50;0.50;;;12.50;99.90;;;;;;4990626;28;20143;-82
2022/09/26 09:25:55;;;;;;;;;;;12.50;99.90;;;;;;5001462;28;20051;-81
2022/09/26 09:28:42;;;;;;;0.50;0.50;;;12.60;99.90;;;;;;4990699;28;19924;-80
2022/09/26 09:31:12;;;;;;;0.50;0.50;;;12.60;99.90;;;;;;5007193;28;20051;-79
2022/09/26 09:33:48;;;;;;;0.50;0.50;;;12.60;99.90;;;;;;4998167;28;20075;-82
2022/09/26 09:36:32;;;;;;;0.50;0.50;;;12.50;99.90;;;;;;4984551;28;20051;-82
2022/09/26 09:39:05;;;;;;;0.52;0.52;;;12.50;99.90;;;;;;5000002;28;20048;-81
2022/09/26 09:41:40;;;;;;;0.50;0.50;;;12.60;99.90;;;;;;5003136;28;20048;-80
2022/09/26 09:44:25;;;;;;;0.50;0.50;;;12.60;99.90;;;;;;5007993;27;20129;-78
2022/09/26 09:46:52;;;;;;;0.50;0.50;;;12.50;99.90;;;;;;5007444;27;20225;-78
2022/09/26 09:49:23;;;;;;;0.60;0.60;;;12.50;99.90;;;;;;4999630;28;20528;-77
2022/09/26 09:52:04;;;;;;;0.50;0.50;;;12.50;99.90;;;;;;5011740;27;20066;-87
2022/09/26 09:54:48;;;;;;;0.50;0.50;;;12.40;99.90;;;;;;5010612;27;20051;-77
2022/09/26 09:57:38;;;;;;;0.50;0.50;;;12.30;99.90;;;;;;5027466;27;20058;-78
2022/09/26 10:00:07;;;;;;;0.50;0.50;;;12.30;99.90;;;;;;5025629;27;20044;-78
2022/09/26 10:02:46;;;;;;;0.50;0.50;;;12.30;99.90;;;;;;5002398;27;20378;-78
2022/09/26 10:05:40;;;;;;;0.50;0.50;;;12.20;99.90;;;;;;5010464;27;20094;-90
2022/09/26 10:08:32;;;;;;;0.50;0.50;;;12.20;99.90;;;;;;5010572;27;20056;-81
2022/09/26 10:11:12;;;;;;;0.50;0.50;;;12.20;99.90;;;;;;4996629;27;20068;-80
2022/09/26 10:13:43;;;;;;;0.60;0.60;;;12.20;99.90;;;;;;5008655;28;20127;-85
2022/09/26 10:16:15;;;;;;;0.60;0.60;;;12.20;99.90;;;;;;4997164;27;20136;-82
2022/09/26 10:19:00;;;;;;;0.50;0.50;;;12.20;99.90;;;;;;5006685;27;20067;-81
2022/09/26 10:21:39;;;;;;;0.50;0.50;;;12.10;99.90;;;;;;4995327;27;20099;-83
2022/09/26 10:24:21;;;;;;;0.60;0.60;;;12.10;99.90;;;;;;5028448;27;20450;-82
2022/09/26 10:26:48;;;;;;;0.60;0.60;;;12.10;99.90;;;;;;5003859;27;20821;-84
2022/09/26 10:29:33;;;;;;;0.50;0.50;;;12.10;99.90;;;;;;5009150;27;20634;-84
2022/09/26 10:32:00;;;;;;;0.50;0.50;;;12.20;99.90;;;;;;5007306;28;20078;-83
2022/09/26 10:34:31;;;;;;;0.60;0.60;;;12.20;99.90;;;;;;5010146;27;20493;-82
2022/09/26 10:37:21;;;;;;;0.50;0.50;;;12.10;99.90;;;;;;5022512;27;20050;-83
2022/09/26 10:42:45;;;;;;;0.50;0.50;;;12.10;99.90;;;;;;5009706;27;20051;-86
2022/09/26 10:45:25;;;;;;;0.50;0.50;;;12.20;99.90;;;;;;5011355;27;20055;-84
2022/09/26 10:47:58;;;;;;;0.60;0.60;;;12.20;99.90;;;;;;4997469;27;20042;-79
2022/09/26 10:50:26;;;;;;;0.50;0.50;;;12.30;99.90;;;;;;4987474;27;20754;-81
2022/09/26 10:53:08;;;;;;;0.60;0.60;;;12.20;99.90;;;;;;4991625;27;20625;-81
2022/09/26 10:55:56;;;;;;;0.50;0.50;;;12.30;99.90;;;;;;4993077;27;20043;-84
2022/09/26 10:58:28;;;;;;;0.50;0.50;;;12.30;99.90;;;;;;5023728;27;20694;-83
2022/09/26 11:00:59;;;;;;;0.60;0.60;;;12.30;99.90;;;;;;5011457;27;20843;-81
2022/09/26 11:03:40;;;;;;;0.50;0.50;;;12.30;99.90;;;;;;5017055;27;20051;-83
2022/09/26 11:06:32;;;;;;;0.60;0.60;;;12.30;99.90;;;;;;5006419;27;20786;-88
2022/09/26 11:09:02;;;;;;;0.50;0.50;;;12.30;99.90;;;;;;5001937;27;20961;-84
2022/09/26 11:11:34;;;;;;;0.50;0.50;;;12.20;99.90;;;;;;5010648;27;20073;-83
2022/09/26 11:14:08;;;;;;;0.50;0.50;;;12.30;99.90;;;;;;4995866;28;20519;-84
2022/09/26 11:16:50;;;;;;;0.50;0.50;;;12.30;99.90;;;;;;5032064;27;20053;-81
2022/09/26 11:19:41;;;;;;;0.60;0.60;;;12.30;99.90;;;;;;5008137;28;20496;-82
2022/09/26 11:22:13;;;;;;;0.60;0.60;;;12.30;99.90;;;;;;5020040;27;20515;-83
2022/09/26 11:24:50;;;;;;;0.50;0.50;;;12.30;99.90;;;;;;5002732;27;20059;-84
2022/09/26 11:27:23;;;;;;;0.50;0.50;;;12.30;99.90;;;;;;5005085;28;20052;-87
2022/09/26 11:30:21;;;;;;;0.60;0.60;;;12.20;99.90;;;;;;5004486;27;20370;-87
2022/09/26 11:32:54;;;;;;;0.60;0.60;;;12.20;99.90;;;;;;4993728;27;20066;-83
2022/09/26 11:35:42;;;;;;;0.60;0.60;;;12.30;99.90;;;;;;4989628;28;20564;-83
2022/09/26 11:38:24;;;;;;;0.50;0.50;;;12.40;99.90;;;;;;5012550;27;20128;-82
2022/09/26 11:40:56;;;;;;;0.50;0.50;;;12.30;99.90;;;;;;4986492;28;20047;-81
2022/09/26 11:43:31;;;;;;;0.50;0.50;;;12.40;99.90;;;;;;5000853;27;20496;-81
2022/09/26 11:46:27;;;;;;;0.50;0.50;;;12.30;99.90;;;;;;5028046;27;20055;-84
2022/09/26 11:49:24;;;;;;;0.60;0.60;;;12.40;99.90;;;;;;5023080;27;20079;-86
2022/09/26 11:52:25;;;;;;;0.50;0.50;;;12.40;99.90;;;;;;4994695;28;20406;-86
2022/09/26 11:55:16;;;;;;;0.60;0.60;;;12.40;99.90;;;;;;5009401;28;20441;-84
2022/09/26 11:58:38;;;;;;;0.50;0.50;;;12.40;99.90;;;;;;5010535;28;20477;-86
2022/09/26 12:01:38;;;;;;;0.50;0.50;;;12.40;99.90;;;;;;4987009;28;20496;-83
2022/09/26 12:04:32;;;;;;;0.50;0.50;;;12.50;99.90;;;;;;4995581;28;20047;-85
2022/09/26 12:07:06;;;;;;;0.60;0.60;;;12.50;99.90;;;;;;5009363;28;21001;-87
2022/09/26 12:09:57;;;;;;;0.50;0.50;;;12.50;99.90;;;;;;5011081;28;20058;-85
2022/09/26 12:12:31;;;;;;;0.50;0.50;;;12.50;99.90;;;;;;4987811;28;20294;-91
2022/09/26 12:15:07;;;;;;;;;;;12.50;99.90;;;;;;5009198;28;20085;-83
2022/09/26 12:18:06;;;;;;;0.50;0.50;;;12.50;99.90;;;;;;5012444;28;20004;-87
2022/09/26 12:21:00;;;;;;;0.50;0.50;;;12.50;99.90;;;;;;5004806;28;20126;-86
2022/09/26 12:23:39;;;;;;;0.50;0.50;;;12.40;99.90;;;;;;4983636;28;20062;-83
2022/09/26 12:26:26;;;;;;;0.50;0.50;;;12.40;99.90;;;;;;5012360;28;20059;-88
2022/09/26 12:29:20;;;;;;;0.50;0.50;;;12.50;99.90;;;;;;5009450;27;20183;-83
2022/09/26 12:32:06;;;;;;;0.50;0.50;;;12.50;99.90;;;;;;5020537;28;20293;-87
2022/09/26 12:34:43;;;;;;;0.50;0.50;;;12.60;99.90;;;;;;5027762;28;20075;-87
2022/09/26 12:37:35;;;;;;;0.50;0.50;;;12.50;99.90;;;;;;5012743;28;20920;-90
2022/09/26 12:40:10;;;;;;;0.50;0.50;;;12.50;99.90;;;;;;5008915;28;20446;-88
2022/09/26 12:43:07;;;;;;;0.50;0.50;;;12.50;99.90;;;;;;5005360;28;20051;-81
2022/09/26 12:46:06;;;;;;;0.50;0.50;;;12.60;99.90;;;;;;4986937;28;20125;-83
2022/09/26 12:49:01;;;;;;;0.50;0.50;;;12.60;99.90;;;;;;4971065;28;20106;-82
2022/09/26 12:51:41;;;;;;;0.50;0.50;;;12.60;99.90;;;;;;5000313;28;20062;-81
2022/09/26 12:54:40;;;;;;;0.50;0.50;;;12.50;99.90;;;;;;5017233;28;20830;-87
2022/09/26 12:57:25;;;;;;;0.55;0.55;;;12.50;99.90;;;;;;4987643;28;20272;-86
2022/09/26 13:00:09;;;;;;;0.60;0.60;;;12.50;99.90;;;;;;5004164;28;20128;-84
2022/09/26 13:02:41;;;;;;;0.50;0.50;;;12.60;99.90;;;;;;5007782;28;20954;-88
2022/09/26 13:05:14;;;;;;;0.50;0.50;;;12.60;99.90;;;;;;4994540;28;20410;-82
2022/09/26 13:07:41;;;;;;;0.60;0.60;;;12.70;99.90;;;;;;4990435;28;20078;-84
2022/09/26 13:10:51;;;;;;;0.50;0.50;;;12.70;99.90;;;;;;5004311;28;20036;-81
2022/09/26 13:13:44;;;;;;;0.50;0.50;;;12.80;99.90;;;;;;4942850;28;20045;-82
2022/09/26 13:16:53;;;;;;;0.50;0.50;;;12.80;99.90;;;;;;4938838;28;20386;-86
2022/09/26 13:19:48;;;;;;;0.50;0.50;;;12.70;99.90;;;;;;5004954;28;20221;-83
2022/09/26 13:22:41;;;;;;;0.50;0.50;;;12.70;99.90;;;;;;4995878;28;20056;-83
2022/09/26 13:25:13;;;;;;;0.50;0.50;;;12.70;99.90;;;;;;4996927;28;20135;-80
2022/09/26 13:27:43;;;;;;;0.57;0.57;;;12.70;99.90;;;;;;4997782;28;20052;-80
2022/09/26 13:30:16;;;;;;;0.50;0.50;;;12.70;99.90;;;;;;4999242;28;20139;-85
2022/09/26 13:32:58;;;;;;;;;;;12.80;99.90;;;;;;5009074;28;20086;-84
2022/09/26 13:35:27;;;;;;;0.50;0.50;;;12.70;99.90;;;;;;5008633;28;19928;-85
2022/09/26 13:38:20;;;;;;;0.55;0.55;;;12.80;99.90;;;;;;4988624;28;20043;-83
2022/09/26 13:40:55;;;;;;;0.60;0.60;;;12.80;99.90;;;;;;5010276;28;20173;-82